Calgary International Airport
CYYC : now visible

Airfield :











YOU CAN JOIN US ON...

 
LOGIN :

Register | Disclaimer

   EN    FR    IT 

 









Legend :    VFR   Marginal VFR   IFR   Intensive IFR   Very Intensive IFR
Visi :
Ceiling :
>= 8 km
>= 3000ft
5 to 8 km
1000 to 3000 ft
1500m to 5 km
500 to 1000 ft
800 to 1500m
200 to 500 ft
< 800m
< 200 ft
Symbols :   Thunderstorms  Fog  Heavy snow  Heavy precipitations  Wind > 20 kt






- Airport Elevation : 3557 ft
- IATA code : YYC


CYYC - Calgary International

CURRENT METAR :
  • 072027Z 04007KT 1 3/4SM -SN FEW018 OVC026 M01/M04 A2983 RMK SF2SC6 SLP147

EXPIRED METARs :
  • 072000Z 08009KT 5SM -SN SCT015 OVC024 M01/M04 A2982 RMK SF3SC5 SLP142
  • 071929Z 07008KT 15SM -SN FEW009 OVC032 M01/M04 A2981 RMK SF1SC7 PCPN VRY LGT SLP136
  • 071900Z 08009KT 15SM SCT017 OVC035 M01/M04 A2979 RMK SC3SC5 SLP132
  • 071800Z 10003KT 15SM BKN022 M00/M05 A2978 RMK SC7 SLP125

TAF TAF CYYC
Valid from the 07 at 21:00 until the 08 at 18:00 UTC


072038Z 0721/0818 03012G22KT 6SM -SN SCT015 OVC025
TEMPO 0721/0803 1SM -SN SCT008 OVC015
PROB30 0721/0724 3/4SM -SHSN VV006
BECMG 0803/0805 33008KT
FM080500 33008KT P6SM BKN080
FM081000 33008KT P6SM SCT060 RMK NXT FCST BY 080000Z



MET'MAP, your aeronautical weather chart ! - Copyright ORBIFLY December 2007 - Disclaimer

ORBIFLY MET'MAP TEAM :

Programming & Development : Alexandra Zaïnal
Concept & original design : Baudouin d'Aumeries
Assistance for programming : Marc-Olivier Méhu
Technical & hardware support : Manuel Goepfert

Contact : metmap@orbifly.com




SOURCES & CREDITS :

   NOAA       Earth
Advisory